PRIVATE WETTERSTATION BILLIGHEIM-ALLFELD                       ZURCK
Wetterdaten: Sonntag, 03.08.2014
Datum Zeit Temp. A. Temp. A. min Temp. A. max Feuchte A. Luftdruck Regen Wind Richtung Richtung Sonnenschein ET Solar Taupunkt Windchill Windben Empfang
03.08.2014 00:00 18,6 C 18,6 C 18,7 C 87 % 1007,9 hPa 0,0 l/m 0,0 km/h (0 Bft) O-SO 112 0 min 0,000 mm 0 W/m 16,4 C 18,6 C 1,6 km/h (1 Bft) 97 %
03.08.2014 00:10 18,5 C 18,5 C 18,6 C 87 % 1007,9 hPa 0,0 l/m 0,0 km/h (0 Bft) N 0 0 min 0,000 mm 0 W/m 16,3 C 18,5 C 0,0 km/h (0 Bft) 97 %
03.08.2014 00:20 18,4 C 18,4 C 18,5 C 87 % 1007,9 hPa 0,0 l/m 0,0 km/h (0 Bft) N 0 0 min 0,000 mm 0 W/m 16,2 C 18,4 C 0,0 km/h (0 Bft) 98 %
03.08.2014 00:30 18,3 C 18,3 C 18,4 C 87 % 1007,9 hPa 0,0 l/m 1,6 km/h (1 Bft) O-SO 112 0 min 0,000 mm 0 W/m 16,1 C 18,3 C 4,8 km/h (1 Bft) 98 %
03.08.2014 00:40 18,7 C 18,4 C 18,7 C 87 % 1007,8 hPa 0,0 l/m 0,0 km/h (0 Bft) O-SO 112 0 min 0,000 mm 0 W/m 16,5 C 18,7 C 4,8 km/h (1 Bft) 98 %
03.08.2014 00:50 18,5 C 18,5 C 18,7 C 87 % 1008,0 hPa 0,0 l/m 0,0 km/h (0 Bft) O-SO 112 0 min 0,000 mm 0 W/m 16,3 C 18,5 C 1,6 km/h (1 Bft) 98 %
03.08.2014 01:00 18,1 C 18,1 C 18,5 C 87 % 1007,8 hPa 0,0 l/m 0,0 km/h (0 Bft) N 0 0 min 0,000 mm 0 W/m 15,9 C 18,1 C 0,0 km/h (0 Bft) 97 %
03.08.2014 01:10 17,9 C 17,9 C 18,1 C 87 % 1008,0 hPa 0,0 l/m 1,6 km/h (1 Bft) O-SO 112 0 min 0,000 mm 0 W/m 15,7 C 17,9 C 4,8 km/h (1 Bft) 97 %
03.08.2014 01:20 18,2 C 17,9 C 18,2 C 87 % 1008,0 hPa 0,0 l/m 3,2 km/h (1 Bft) SO 135 0 min 0,000 mm 0 W/m 16,0 C 18,2 C 8,0 km/h (2 Bft) 97 %
03.08.2014 01:30 18,2 C 18,2 C 18,2 C 87 % 1007,9 hPa 0,0 l/m 1,6 km/h (1 Bft) S 180 0 min 0,000 mm 0 W/m 16,0 C 18,2 C 8,0 km/h (2 Bft) 98 %
03.08.2014 01:40 18,0 C 18,0 C 18,2 C 87 % 1007,9 hPa 0,0 l/m 1,6 km/h (1 Bft) S-SO 157 0 min 0,000 mm 0 W/m 15,8 C 18,0 C 4,8 km/h (1 Bft) 98 %
03.08.2014 01:50 17,9 C 17,9 C 18,0 C 87 % 1007,8 hPa 0,0 l/m 0,0 km/h (0 Bft) S-SO 157 0 min 0,000 mm 0 W/m 15,7 C 17,9 C 1,6 km/h (1 Bft) 97 %
03.08.2014 02:00 17,8 C 17,8 C 17,9 C 87 % 1007,8 hPa 0,0 l/m 0,0 km/h (0 Bft) S-SW 202 0 min 0,025 mm 0 W/m 15,6 C 17,8 C 4,8 km/h (1 Bft) 98 %
03.08.2014 02:10 17,8 C 17,8 C 17,8 C 87 % 1007,8 hPa 0,0 l/m 0,0 km/h (0 Bft) S 180 0 min 0,000 mm 0 W/m 15,6 C 17,8 C 4,8 km/h (1 Bft) 96 %
03.08.2014 02:20 17,7 C 17,7 C 17,8 C 87 % 1007,8 hPa 0,0 l/m 1,6 km/h (1 Bft) SO 135 0 min 0,000 mm 0 W/m 15,5 C 17,7 C 4,8 km/h (1 Bft) 98 %
03.08.2014 02:30 17,8 C 17,7 C 17,8 C 87 % 1008,0 hPa 0,0 l/m 0,0 km/h (0 Bft) SO 135 0 min 0,000 mm 0 W/m 15,6 C 17,8 C 6,4 km/h (2 Bft) 97 %
03.08.2014 02:40 17,8 C 17,8 C 17,8 C 87 % 1008,4 hPa 0,4 l/m 1,6 km/h (1 Bft) S-SO 157 0 min 0,000 mm 0 W/m 15,6 C 17,8 C 6,4 km/h (2 Bft) 98 %
03.08.2014 02:50 17,7 C 17,7 C 17,8 C 87 % 1008,5 hPa 1,8 l/m 0,0 km/h (0 Bft) SO 135 0 min 0,000 mm 0 W/m 15,5 C 17,7 C 8,0 km/h (2 Bft) 98 %
03.08.2014 03:00 17,7 C 17,7 C 17,7 C 87 % 1008,5 hPa 0,2 l/m 0,0 km/h (0 Bft) S-SW 202 0 min 0,000 mm 0 W/m 15,5 C 17,7 C 1,6 km/h (1 Bft) 98 %
03.08.2014 03:10 17,7 C 17,7 C 17,7 C 87 % 1008,5 hPa 0,0 l/m 0,0 km/h (0 Bft) N 0 0 min 0,000 mm 0 W/m 15,5 C 17,7 C 0,0 km/h (0 Bft) 98 %
03.08.2014 03:20 17,6 C 17,6 C 17,7 C 87 % 1008,6 hPa 0,0 l/m 0,0 km/h (0 Bft) N 0 0 min 0,000 mm 0 W/m 15,4 C 17,6 C 0,0 km/h (0 Bft) 97 %
03.08.2014 03:30 17,4 C 17,4 C 17,6 C 87 % 1008,5 hPa 0,0 l/m 0,0 km/h (0 Bft) N 0 0 min 0,000 mm 0 W/m 15,2 C 17,4 C 0,0 km/h (0 Bft) 98 %
03.08.2014 03:40 17,3 C 17,3 C 17,4 C 87 % 1008,5 hPa 0,0 l/m 0,0 km/h (0 Bft) N 0 0 min 0,000 mm 0 W/m 15,1 C 17,3 C 0,0 km/h (0 Bft) 97 %
03.08.2014 03:50 17,3 C 17,3 C 17,3 C 87 % 1008,5 hPa 0,0 l/m 0,0 km/h (0 Bft) N 0 0 min 0,000 mm 0 W/m 15,1 C 17,3 C 0,0 km/h (0 Bft) 98 %
03.08.2014 04:00 17,2 C 17,2 C 17,3 C 87 % 1008,5 hPa 0,0 l/m 0,0 km/h (0 Bft) W 270 0 min 0,000 mm 0 W/m 15,0 C 17,2 C 4,8 km/h (1 Bft) 97 %
03.08.2014 04:10 17,1 C 17,1 C 17,2 C 87 % 1008,5 hPa 0,0 l/m 0,0 km/h (0 Bft) N 0 0 min 0,000 mm 0 W/m 14,9 C 17,1 C 0,0 km/h (0 Bft) 98 %
03.08.2014 04:20 17,0 C 17,0 C 17,1 C 87 % 1008,6 hPa 0,0 l/m 0,0 km/h (0 Bft) W 270 0 min 0,000 mm 0 W/m 14,8 C 17,0 C 1,6 km/h (1 Bft) 97 %
03.08.2014 04:30 16,8 C 16,8 C 17,0 C 87 % 1008,6 hPa 0,0 l/m 0,0 km/h (0 Bft) W 270 0 min 0,000 mm 0 W/m 14,6 C 16,8 C 1,6 km/h (1 Bft) 97 %
03.08.2014 04:40 16,8 C 16,8 C 16,8 C 87 % 1008,5 hPa 0,0 l/m 0,0 km/h (0 Bft) N 0 0 min 0,000 mm 0 W/m 14,6 C 16,8 C 0,0 km/h (0 Bft) 98 %
03.08.2014 04:50 16,8 C 16,8 C 16,8 C 87 % 1008,6 hPa 0,0 l/m 0,0 km/h (0 Bft) W 270 0 min 0,000 mm 0 W/m 14,6 C 16,8 C 1,6 km/h (1 Bft) 97 %
03.08.2014 05:00 16,7 C 16,7 C 16,8 C 87 % 1008,6 hPa 0,0 l/m 0,0 km/h (0 Bft) W 270 0 min 0,000 mm 0 W/m 14,5 C 16,7 C 1,6 km/h (1 Bft) 98 %
03.08.2014 05:10 16,6 C 16,6 C 16,7 C 87 % 1008,7 hPa 0,0 l/m 0,0 km/h (0 Bft) W 270 0 min 0,000 mm 0 W/m 14,4 C 16,6 C 3,2 km/h (1 Bft) 98 %
03.08.2014 05:20 16,6 C 16,6 C 16,6 C 87 % 1008,9 hPa 0,0 l/m 1,6 km/h (1 Bft) W 270 0 min 0,000 mm 0 W/m 14,4 C 16,6 C 4,8 km/h (1 Bft) 97 %
03.08.2014 05:30 16,6 C 16,5 C 16,6 C 87 % 1009,1 hPa 0,0 l/m 0,0 km/h (0 Bft) SW 225 0 min 0,000 mm 0 W/m 14,4 C 16,6 C 1,6 km/h (1 Bft) 97 %
03.08.2014 05:40 16,6 C 16,6 C 16,6 C 87 % 1008,9 hPa 0,0 l/m 0,0 km/h (0 Bft) SW 225 0 min 0,000 mm 0 W/m 14,4 C 16,6 C 1,6 km/h (1 Bft) 98 %
03.08.2014 05:50 16,5 C 16,5 C 16,6 C 87 % 1009,0 hPa 0,0 l/m 0,0 km/h (0 Bft) SW 225 0 min 0,000 mm 0 W/m 14,3 C 16,5 C 1,6 km/h (1 Bft) 99 %
03.08.2014 06:00 16,4 C 16,4 C 16,5 C 87 % 1008,9 hPa 0,0 l/m 0,0 km/h (0 Bft) SW 225 0 min 0,000 mm 0 W/m 14,2 C 16,4 C 1,6 km/h (1 Bft) 99 %
03.08.2014 06:10 16,4 C 16,3 C 16,4 C 87 % 1008,9 hPa 0,0 l/m 0,0 km/h (0 Bft) SW 225 0 min 0,000 mm 9 W/m 14,2 C 16,4 C 1,6 km/h (1 Bft) 99 %
03.08.2014 06:20 16,3 C 16,3 C 16,4 C 89 % 1009,1 hPa 0,0 l/m 0,0 km/h (0 Bft) SW 225 0 min 0,000 mm 16 W/m 14,5 C 16,3 C 1,6 km/h (1 Bft) 98 %
03.08.2014 06:30 16,3 C 16,3 C 16,3 C 87 % 1009,2 hPa 0,0 l/m 0,0 km/h (0 Bft) SO 135 0 min 0,000 mm 16 W/m 14,1 C 16,3 C 1,6 km/h (1 Bft) 99 %
03.08.2014 06:40 16,4 C 16,3 C 16,4 C 87 % 1009,2 hPa 0,0 l/m 0,0 km/h (0 Bft) SO 135 0 min 0,000 mm 19 W/m 14,2 C 16,4 C 1,6 km/h (1 Bft) 100 %
03.08.2014 06:50 16,6 C 16,4 C 16,6 C 87 % 1009,1 hPa 0,0 l/m 0,0 km/h (0 Bft) SO 135 0 min 0,000 mm 40 W/m 14,4 C 16,6 C 1,6 km/h (1 Bft) 89 %
03.08.2014 07:00 16,7 C 16,6 C 16,7 C 87 % 1009,2 hPa 0,0 l/m 1,6 km/h (1 Bft) SO 135 0 min 0,025 mm 47 W/m 14,5 C 16,7 C 4,8 km/h (1 Bft) 99 %
03.08.2014 07:10 16,8 C 16,7 C 16,8 C 87 % 1009,1 hPa 0,0 l/m 0,0 km/h (0 Bft) SO 135 0 min 0,000 mm 60 W/m 14,6 C 16,8 C 4,8 km/h (1 Bft) 99 %
03.08.2014 07:20 16,9 C 16,8 C 16,9 C 87 % 1009,2 hPa 0,0 l/m 0,0 km/h (0 Bft) SO 135 0 min 0,000 mm 76 W/m 14,7 C 16,9 C 1,6 km/h (1 Bft) 99 %
03.08.2014 07:30 17,1 C 16,9 C 17,1 C 87 % 1009,4 hPa 0,0 l/m 1,6 km/h (1 Bft) S-SO 157 0 min 0,000 mm 76 W/m 14,9 C 17,1 C 6,4 km/h (2 Bft) 99 %
03.08.2014 07:40 17,0 C 17,0 C 17,1 C 87 % 1009,7 hPa 0,0 l/m 0,0 km/h (0 Bft) S-SO 157 0 min 0,000 mm 47 W/m 14,8 C 17,0 C 4,8 km/h (1 Bft) 99 %
03.08.2014 07:50 17,1 C 17,0 C 17,1 C 87 % 1009,7 hPa 0,0 l/m 1,6 km/h (1 Bft) SO 135 0 min 0,000 mm 70 W/m 14,9 C 17,1 C 8,0 km/h (2 Bft) 100 %
03.08.2014 08:00 17,2 C 17,1 C 17,2 C 87 % 1009,9 hPa 0,0 l/m 0,0 km/h (0 Bft) S-SO 157 0 min 0,025 mm 86 W/m 15,0 C 17,2 C 6,4 km/h (2 Bft) 99 %
03.08.2014 08:10 17,2 C 17,2 C 17,2 C 87 % 1009,9 hPa 0,0 l/m 1,6 km/h (1 Bft) S-SO 157 0 min 0,000 mm 90 W/m 15,0 C 17,2 C 6,4 km/h (2 Bft) 100 %
03.08.2014 08:20 17,2 C 17,2 C 17,2 C 87 % 1010,0 hPa 0,0 l/m 1,6 km/h (1 Bft) S-SO 157 0 min 0,000 mm 88 W/m 15,0 C 17,2 C 8,0 km/h (2 Bft) 99 %
03.08.2014 08:30 17,3 C 17,2 C 17,3 C 87 % 1009,9 hPa 0,0 l/m 0,0 km/h (0 Bft) S 180 0 min 0,000 mm 120 W/m 15,1 C 17,3 C 1,6 km/h (1 Bft) 100 %
03.08.2014 08:40 17,5 C 17,3 C 17,5 C 87 % 1010,0 hPa 0,0 l/m 0,0 km/h (0 Bft) S 180 10 min 0,000 mm 197 W/m 15,3 C 17,5 C 1,6 km/h (1 Bft) 99 %
03.08.2014 08:50 17,6 C 17,5 C 17,6 C 87 % 1010,0 hPa 0,0 l/m 0,0 km/h (0 Bft) N 0 0 min 0,000 mm 142 W/m 15,4 C 17,6 C 0,0 km/h (0 Bft) 100 %
03.08.2014 09:00 17,7 C 17,6 C 17,7 C 87 % 1010,1 hPa 0,0 l/m 0,0 km/h (0 Bft) S-SO 157 0 min 0,051 mm 149 W/m 15,5 C 17,7 C 1,6 km/h (1 Bft) 99 %
03.08.2014 09:10 17,8 C 17,7 C 17,8 C 87 % 1010,3 hPa 0,0 l/m 0,0 km/h (0 Bft) S-SO 157 0 min 0,000 mm 146 W/m 15,6 C 17,8 C 1,6 km/h (1 Bft) 99 %
03.08.2014 09:20 17,9 C 17,8 C 17,9 C 87 % 1010,4 hPa 0,0 l/m 0,0 km/h (0 Bft) S-SO 157 0 min 0,000 mm 141 W/m 15,7 C 17,9 C 6,4 km/h (2 Bft) 99 %
03.08.2014 09:30 18,2 C 17,9 C 18,2 C 87 % 1010,5 hPa 0,0 l/m 0,0 km/h (0 Bft) S-SO 157 10 min 0,000 mm 251 W/m 16,0 C 18,2 C 8,0 km/h (2 Bft) 100 %
03.08.2014 09:40 18,2 C 18,2 C 18,2 C 87 % 1010,6 hPa 0,0 l/m 1,6 km/h (1 Bft) S-SO 157 10 min 0,000 mm 207 W/m 16,0 C 18,2 C 8,0 km/h (2 Bft) 100 %
03.08.2014 09:50 18,4 C 18,2 C 18,4 C 87 % 1010,7 hPa 0,0 l/m 1,6 km/h (1 Bft) S 180 10 min 0,000 mm 253 W/m 16,2 C 18,4 C 8,0 km/h (2 Bft) 100 %
03.08.2014 10:00 18,6 C 18,4 C 18,6 C 87 % 1010,8 hPa 0,0 l/m 0,0 km/h (0 Bft) S 180 10 min 0,102 mm 262 W/m 16,4 C 18,6 C 3,2 km/h (1 Bft) 100 %
03.08.2014 10:10 18,8 C 18,6 C 18,8 C 87 % 1010,8 hPa 0,0 l/m 1,6 km/h (1 Bft) S-SW 202 10 min 0,000 mm 255 W/m 16,6 C 18,8 C 8,0 km/h (2 Bft) 99 %
03.08.2014 10:20 18,8 C 18,7 C 18,9 C 88 % 1010,9 hPa 0,0 l/m 0,0 km/h (0 Bft) S 180 10 min 0,000 mm 274 W/m 16,8 C 18,8 C 4,8 km/h (1 Bft) 99 %
03.08.2014 10:30 19,0 C 18,8 C 19,1 C 87 % 1011,0 hPa 0,0 l/m 1,6 km/h (1 Bft) S-SO 157 10 min 0,000 mm 283 W/m 16,8 C 19,0 C 8,0 km/h (2 Bft) 100 %
03.08.2014 10:40 19,0 C 19,0 C 19,1 C 87 % 1011,1 hPa 0,0 l/m 4,8 km/h (1 Bft) S-SO 157 10 min 0,000 mm 241 W/m 16,8 C 19,0 C 9,7 km/h (2 Bft) 99 %
03.08.2014 10:50 19,0 C 19,0 C 19,0 C 87 % 1011,1 hPa 0,0 l/m 3,2 km/h (1 Bft) S-SO 157 10 min 0,000 mm 176 W/m 16,8 C 19,0 C 9,7 km/h (2 Bft) 99 %
03.08.2014 11:00 19,1 C 19,0 C 19,1 C 87 % 1011,2 hPa 0,0 l/m 3,2 km/h (1 Bft) S-SO 157 10 min 0,127 mm 299 W/m 16,9 C 19,1 C 9,7 km/h (2 Bft) 100 %
03.08.2014 11:10 19,2 C 19,1 C 19,2 C 88 % 1011,2 hPa 0,0 l/m 3,2 km/h (1 Bft) SO 135 10 min 0,000 mm 306 W/m 17,2 C 19,2 C 14,5 km/h (3 Bft) 100 %
03.08.2014 11:20 19,4 C 19,2 C 19,4 C 87 % 1011,2 hPa 0,0 l/m 3,2 km/h (1 Bft) S-SO 157 10 min 0,000 mm 290 W/m 17,2 C 19,4 C 9,7 km/h (2 Bft) 100 %
03.08.2014 11:30 19,6 C 19,4 C 19,6 C 87 % 1011,2 hPa 0,0 l/m 3,2 km/h (1 Bft) S-SO 157 10 min 0,000 mm 353 W/m 17,4 C 19,6 C 8,0 km/h (2 Bft) 100 %
03.08.2014 11:40 19,8 C 19,6 C 19,8 C 87 % 1011,3 hPa 0,0 l/m 1,6 km/h (1 Bft) S 180 10 min 0,000 mm 330 W/m 17,6 C 19,8 C 9,7 km/h (2 Bft) 99 %
03.08.2014 11:50 19,9 C 19,8 C 19,9 C 87 % 1011,2 hPa 0,0 l/m 1,6 km/h (1 Bft) S-SO 157 10 min 0,000 mm 251 W/m 17,7 C 19,9 C 8,0 km/h (2 Bft) 100 %
03.08.2014 12:00 19,9 C 19,9 C 20,0 C 87 % 1011,3 hPa 0,0 l/m 0,0 km/h (0 Bft) S-SO 157 10 min 0,152 mm 257 W/m 17,7 C 19,9 C 8,0 km/h (2 Bft) 100 %
03.08.2014 12:10 19,9 C 19,9 C 20,0 C 86 % 1011,3 hPa 0,0 l/m 1,6 km/h (1 Bft) S-SO 157 10 min 0,000 mm 200 W/m 17,5 C 19,9 C 9,7 km/h (2 Bft) 99 %
03.08.2014 12:20 19,9 C 19,9 C 19,9 C 87 % 1011,2 hPa 0,0 l/m 3,2 km/h (1 Bft) S-SO 157 10 min 0,000 mm 209 W/m 17,7 C 19,9 C 8,0 km/h (2 Bft) 100 %
03.08.2014 12:30 20,1 C 19,9 C 20,1 C 86 % 1011,3 hPa 0,0 l/m 3,2 km/h (1 Bft) S-SO 157 10 min 0,000 mm 216 W/m 17,7 C 20,1 C 8,0 km/h (2 Bft) 100 %
03.08.2014 12:40 20,2 C 19,9 C 20,2 C 86 % 1011,3 hPa 0,0 l/m 3,5 km/h (1 Bft) S-SO 160 10 min 0,001 mm 213 W/m 17,8 C 20,2 C 8,0 km/h (2 Bft) 98 %
03.08.2014 12:50 20,2 C 20,2 C 20,3 C 85 % 1011,3 hPa 0,0 l/m 2,1 km/h (1 Bft) S-SO 152 10 min 0,000 mm 221 W/m 17,6 C 20,2 C 8,0 km/h (2 Bft) 98 %
03.08.2014 13:00 20,3 C 20,2 C 20,3 C 85 % 1011,2 hPa 0,0 l/m 1,5 km/h (1 Bft) S-SO 159 10 min 0,000 mm 206 W/m 17,7 C 20,3 C 8,0 km/h (2 Bft) 97 %
03.08.2014 13:10 20,3 C 20,3 C 20,4 C 85 % 1011,3 hPa 0,0 l/m 2,7 km/h (1 Bft) SO 126 10 min 0,127 mm 223 W/m 17,7 C 20,3 C 9,7 km/h (2 Bft) 98 %
03.08.2014 13:20 20,3 C 20,3 C 20,3 C 86 % 1011,1 hPa 0,0 l/m 2,2 km/h (1 Bft) S-SO 160 10 min 0,000 mm 295 W/m 17,9 C 20,3 C 9,7 km/h (2 Bft) 98 %
03.08.2014 13:30 20,6 C 20,3 C 20,6 C 86 % 1011,0 hPa 0,0 l/m 2,6 km/h (1 Bft) S-SW 195 10 min 0,000 mm 399 W/m 18,2 C 20,6 C 9,7 km/h (2 Bft) 97 %
03.08.2014 13:40 21,0 C 20,6 C 21,0 C 86 % 1010,8 hPa 0,0 l/m 1,8 km/h (1 Bft) S 176 10 min 0,000 mm 418 W/m 18,6 C 21,0 C 8,0 km/h (2 Bft) 98 %
03.08.2014 13:50 21,3 C 21,0 C 21,3 C 84 % 1010,9 hPa 0,0 l/m 5,4 km/h (1 Bft) S-SO 154 10 min 0,000 mm 803 W/m 18,5 C 21,3 C 14,5 km/h (3 Bft) 97 %
03.08.2014 14:00 21,9 C 21,3 C 21,9 C 83 % 1010,8 hPa 0,0 l/m 4,9 km/h (1 Bft) S-SW 209 10 min 0,254 mm 610 W/m 18,9 C 21,9 C 16,1 km/h (3 Bft) 98 %
03.08.2014 14:10 22,3 C 21,9 C 22,3 C 80 % 1010,9 hPa 0,0 l/m 5,8 km/h (2 Bft) S-SW 211 10 min 0,000 mm 763 W/m 18,7 C 22,3 C 16,1 km/h (3 Bft) 97 %
03.08.2014 14:20 22,7 C 22,3 C 22,7 C 76 % 1010,8 hPa 0,0 l/m 3,3 km/h (1 Bft) S-SW 208 10 min 0,000 mm 446 W/m 18,2 C 22,7 C 14,5 km/h (3 Bft) 98 %
03.08.2014 14:30 22,9 C 22,7 C 22,9 C 74 % 1010,7 hPa 0,0 l/m 5,7 km/h (1 Bft) W 262 10 min 0,000 mm 775 W/m 18,0 C 22,9 C 16,1 km/h (3 Bft) 97 %
03.08.2014 14:40 23,4 C 22,9 C 23,4 C 75 % 1010,7 hPa 0,0 l/m 4,1 km/h (1 Bft) SW 221 10 min 0,000 mm 355 W/m 18,7 C 23,4 C 14,5 km/h (3 Bft) 97 %
03.08.2014 14:50 23,5 C 23,4 C 23,6 C 73 % 1010,7 hPa 0,0 l/m 4,5 km/h (1 Bft) S-SW 202 10 min 0,000 mm 872 W/m 18,4 C 23,5 C 11,3 km/h (2 Bft) 98 %
03.08.2014 15:00 23,6 C 23,5 C 23,6 C 71 % 1010,6 hPa 0,0 l/m 4,4 km/h (1 Bft) S-SW 213 10 min 0,381 mm 591 W/m 18,0 C 23,6 C 14,5 km/h (3 Bft) 97 %
03.08.2014 15:10 23,7 C 23,6 C 23,7 C 71 % 1010,6 hPa 0,0 l/m 3,8 km/h (1 Bft) W 272 10 min 0,000 mm 561 W/m 18,1 C 23,7 C 11,3 km/h (2 Bft) 98 %
03.08.2014 15:20 23,9 C 23,7 C 23,9 C 69 % 1010,6 hPa 0,0 l/m 3,1 km/h (1 Bft) NW 316 10 min 0,000 mm 503 W/m 17,9 C 23,9 C 9,7 km/h (2 Bft) 97 %
03.08.2014 15:30 24,1 C 23,9 C 24,1 C 66 % 1010,5 hPa 0,0 l/m 2,9 km/h (1 Bft) W-NW 303 10 min 0,000 mm 798 W/m 17,3 C 24,1 C 11,3 km/h (2 Bft) 97 %
03.08.2014 15:40 24,2 C 24,1 C 24,3 C 67 % 1010,4 hPa 0,0 l/m 0,7 km/h (0 Bft) NW 315 10 min 0,000 mm 763 W/m 17,7 C 24,2 C 6,4 km/h (2 Bft) 98 %
03.08.2014 15:50 24,1 C 24,1 C 24,3 C 66 % 1010,4 hPa 0,0 l/m 1,7 km/h (1 Bft) W 269 10 min 0,000 mm 264 W/m 17,3 C 24,1 C 9,7 km/h (2 Bft) 97 %
03.08.2014 16:00 24,0 C 24,0 C 24,2 C 66 % 1010,3 hPa 0,0 l/m 1,1 km/h (1 Bft) W 277 10 min 0,330 mm 218 W/m 17,2 C 24,0 C 6,4 km/h (2 Bft) 98 %
03.08.2014 16:10 24,2 C 24,0 C 24,2 C 69 % 1010,3 hPa 0,0 l/m 2,8 km/h (1 Bft) SW 228 10 min 0,000 mm 448 W/m 18,1 C 24,2 C 8,0 km/h (2 Bft) 97 %
03.08.2014 16:20 24,4 C 24,2 C 24,4 C 68 % 1010,3 hPa 0,0 l/m 4,5 km/h (1 Bft) SW 223 10 min 0,000 mm 647 W/m 18,1 C 24,4 C 16,1 km/h (3 Bft) 98 %
03.08.2014 16:30 24,6 C 24,4 C 24,6 C 67 % 1010,3 hPa 0,0 l/m 4,4 km/h (1 Bft) NW 315 10 min 0,000 mm 214 W/m 18,1 C 24,6 C 11,3 km/h (2 Bft) 97 %
03.08.2014 16:40 24,7 C 24,6 C 24,7 C 68 % 1010,2 hPa 0,0 l/m 2,5 km/h (1 Bft) NW 304 10 min 0,000 mm 246 W/m 18,4 C 24,7 C 9,7 km/h (2 Bft) 97 %
03.08.2014 16:50 24,5 C 24,5 C 24,7 C 66 % 1010,1 hPa 0,0 l/m 2,3 km/h (1 Bft) SW 219 10 min 0,000 mm 628 W/m 17,7 C 24,5 C 11,3 km/h (2 Bft) 99 %
03.08.2014 17:00 24,8 C 24,5 C 24,8 C 63 % 1010,2 hPa 0,0 l/m 6,2 km/h (2 Bft) W-NW 284 10 min 0,280 mm 295 W/m 17,3 C 24,8 C 19,3 km/h (3 Bft) 98 %
03.08.2014 17:10 25,1 C 24,8 C 25,1 C 61 % 1010,1 hPa 0,0 l/m 5,6 km/h (1 Bft) W 261 10 min 0,000 mm 197 W/m 17,0 C 25,1 C 16,1 km/h (3 Bft) 99 %
03.08.2014 17:20 25,1 C 25,0 C 25,1 C 62 % 1010,1 hPa 0,0 l/m 5,0 km/h (1 Bft) W 259 10 min 0,000 mm 186 W/m 17,3 C 25,1 C 17,7 km/h (3 Bft) 100 %
03.08.2014 17:30 25,0 C 25,0 C 25,1 C 63 % 1010,1 hPa 0,0 l/m 3,5 km/h (1 Bft) NW 311 10 min 0,000 mm 209 W/m 17,5 C 25,0 C 14,5 km/h (3 Bft) 100 %
03.08.2014 17:40 25,0 C 25,0 C 25,0 C 61 % 1010,1 hPa 0,0 l/m 4,9 km/h (1 Bft) W 269 10 min 0,000 mm 172 W/m 16,9 C 25,0 C 17,7 km/h (3 Bft) 100 %
03.08.2014 17:50 24,9 C 24,9 C 25,0 C 63 % 1010,1 hPa 0,0 l/m 2,3 km/h (1 Bft) NW 305 10 min 0,000 mm 172 W/m 17,4 C 24,9 C 11,3 km/h (2 Bft) 100 %
03.08.2014 18:00 24,9 C 24,8 C 24,9 C 63 % 1010,1 hPa 0,0 l/m 4,2 km/h (1 Bft) NW 320 10 min 0,152 mm 197 W/m 17,4 C 24,9 C 11,3 km/h (2 Bft) 100 %
03.08.2014 18:10 25,1 C 24,9 C 25,1 C 62 % 1010,2 hPa 0,0 l/m 3,2 km/h (1 Bft) W-NW 302 10 min 0,000 mm 169 W/m 17,3 C 25,1 C 9,7 km/h (2 Bft) 100 %
03.08.2014 18:20 25,1 C 25,1 C 25,1 C 61 % 1010,3 hPa 0,0 l/m 2,8 km/h (1 Bft) SW 228 0 min 0,000 mm 151 W/m 17,0 C 25,1 C 11,3 km/h (2 Bft) 100 %
03.08.2014 18:30 24,9 C 24,9 C 25,1 C 61 % 1010,4 hPa 0,0 l/m 6,2 km/h (2 Bft) NW 310 0 min 0,000 mm 132 W/m 16,8 C 24,9 C 16,1 km/h (3 Bft) 100 %
03.08.2014 18:40 24,8 C 24,8 C 24,9 C 61 % 1010,4 hPa 0,0 l/m 4,0 km/h (1 Bft) NW 319 0 min 0,000 mm 114 W/m 16,8 C 24,8 C 14,5 km/h (3 Bft) 100 %
03.08.2014 18:50 24,6 C 24,6 C 24,8 C 61 % 1010,4 hPa 0,0 l/m 2,5 km/h (1 Bft) W 263 0 min 0,000 mm 81 W/m 16,6 C 24,6 C 9,7 km/h (2 Bft) 100 %
03.08.2014 19:00 24,2 C 24,2 C 24,6 C 63 % 1010,5 hPa 0,0 l/m 4,5 km/h (1 Bft) NW 304 0 min 0,000 mm 74 W/m 16,7 C 24,2 C 12,9 km/h (3 Bft) 100 %
03.08.2014 19:10 23,9 C 23,9 C 24,2 C 64 % 1010,4 hPa 0,0 l/m 2,2 km/h (1 Bft) W-SW 248 0 min 0,102 mm 60 W/m 16,7 C 23,9 C 9,7 km/h (2 Bft) 100 %
03.08.2014 19:20 23,6 C 23,6 C 23,9 C 65 % 1010,5 hPa 0,0 l/m 2,2 km/h (1 Bft) W-NW 296 0 min 0,000 mm 58 W/m 16,6 C 23,6 C 11,3 km/h (2 Bft) 99 %
03.08.2014 19:30 23,3 C 23,3 C 23,6 C 67 % 1010,5 hPa 0,0 l/m 2,1 km/h (1 Bft) W-NW 296 0 min 0,000 mm 56 W/m 16,8 C 23,3 C 8,0 km/h (2 Bft) 100 %
03.08.2014 19:40 22,9 C 22,9 C 23,3 C 69 % 1010,5 hPa 0,0 l/m 3,8 km/h (1 Bft) W-NW 299 0 min 0,000 mm 51 W/m 16,9 C 22,9 C 9,7 km/h (2 Bft) 99 %
03.08.2014 19:50 22,6 C 22,6 C 22,9 C 69 % 1010,8 hPa 0,0 l/m 2,6 km/h (1 Bft) W-NW 283 0 min 0,000 mm 37 W/m 16,6 C 22,6 C 11,3 km/h (2 Bft) 100 %
03.08.2014 20:00 22,3 C 22,3 C 22,6 C 70 % 1010,8 hPa 0,0 l/m 1,6 km/h (1 Bft) NW 315 0 min 0,050 mm 28 W/m 16,6 C 22,3 C 8,0 km/h (2 Bft) 99 %
03.08.2014 20:10 21,9 C 21,9 C 22,3 C 72 % 1010,9 hPa 0,0 l/m 0,7 km/h (0 Bft) W-NW 299 0 min 0,000 mm 21 W/m 16,6 C 21,9 C 6,4 km/h (2 Bft) 100 %
03.08.2014 20:20 21,6 C 21,6 C 21,9 C 74 % 1011,1 hPa 0,0 l/m 0,3 km/h (0 Bft) W-NW 296 0 min 0,000 mm 18 W/m 16,8 C 21,6 C 4,8 km/h (1 Bft) 100 %
03.08.2014 20:30 21,3 C 21,3 C 21,6 C 76 % 1011,2 hPa 0,0 l/m 0,7 km/h (0 Bft) NW 309 0 min 0,000 mm 12 W/m 16,9 C 21,3 C 4,8 km/h (1 Bft) 100 %
03.08.2014 20:40 21,1 C 21,1 C 21,3 C 78 % 1011,5 hPa 0,0 l/m 0,1 km/h (0 Bft) W 281 0 min 0,000 mm 5 W/m 17,1 C 21,1 C 3,2 km/h (1 Bft) 100 %
03.08.2014 20:50 20,7 C 20,7 C 21,1 C 79 % 1011,6 hPa 0,2 l/m 2,0 km/h (1 Bft) W-SW 246 0 min 0,000 mm 0 W/m 16,9 C 20,7 C 9,7 km/h (2 Bft) 100 %
03.08.2014 21:00 20,4 C 20,4 C 20,7 C 81 % 1011,6 hPa 0,4 l/m 0,2 km/h (0 Bft) W-SW 246 0 min 0,000 mm 0 W/m 17,0 C 20,4 C 6,4 km/h (2 Bft) 99 %
03.08.2014 21:10 19,8 C 19,8 C 20,4 C 84 % 1011,6 hPa 0,4 l/m 0,0 km/h (0 Bft) W-SW 247 0 min 0,000 mm 0 W/m 17,0 C 19,8 C 1,6 km/h (1 Bft) 98 %
03.08.2014 21:20 19,1 C 19,1 C 19,8 C 86 % 1011,7 hPa 0,2 l/m 0,0 km/h (0 Bft) W-SW 247 0 min 0,000 mm 0 W/m 16,7 C 19,1 C 1,6 km/h (1 Bft) 94 %
03.08.2014 21:30 18,7 C 18,7 C 19,1 C 86 % 1011,8 hPa 0,0 l/m 0,0 km/h (0 Bft) W-SW 247 0 min 0,000 mm 0 W/m 16,3 C 18,7 C 1,6 km/h (1 Bft) 91 %
03.08.2014 21:40 18,4 C 18,4 C 18,6 C 87 % 1012,0 hPa 0,0 l/m 0,0 km/h (0 Bft) W-SW 247 0 min 0,000 mm 0 W/m 16,2 C 18,4 C 1,6 km/h (1 Bft) 98 %
03.08.2014 21:50 18,3 C 18,3 C 18,4 C 87 % 1012,1 hPa 0,0 l/m 0,0 km/h (0 Bft) W-SW 247 0 min 0,000 mm 0 W/m 16,1 C 18,3 C 1,6 km/h (1 Bft) 97 %
03.08.2014 22:00 18,2 C 18,2 C 18,3 C 87 % 1012,3 hPa 0,0 l/m 0,0 km/h (0 Bft) N 0 0 min 0,025 mm 0 W/m 16,0 C 18,2 C 0,0 km/h (0 Bft) 99 %
03.08.2014 22:10 18,1 C 18,1 C 18,2 C 87 % 1012,3 hPa 0,0 l/m 0,0 km/h (0 Bft) N 0 0 min 0,000 mm 0 W/m 15,9 C 18,1 C 0,0 km/h (0 Bft) 98 %
03.08.2014 22:20 18,1 C 18,1 C 18,1 C 87 % 1012,3 hPa 0,0 l/m 0,0 km/h (0 Bft) W-SW 247 0 min 0,000 mm 0 W/m 15,9 C 18,1 C 3,2 km/h (1 Bft) 99 %
03.08.2014 22:30 18,0 C 18,0 C 18,1 C 87 % 1012,6 hPa 0,0 l/m 0,0 km/h (0 Bft) W-SW 247 0 min 0,000 mm 0 W/m 15,8 C 18,0 C 1,6 km/h (1 Bft) 100 %
03.08.2014 22:40 18,0 C 18,0 C 18,1 C 87 % 1012,6 hPa 0,0 l/m 0,0 km/h (0 Bft) N 0 0 min 0,000 mm 0 W/m 15,8 C 18,0 C 0,0 km/h (0 Bft) 98 %
03.08.2014 22:50 17,9 C 17,9 C 18,0 C 87 % 1012,5 hPa 0,0 l/m 0,0 km/h (0 Bft) W-SW 247 0 min 0,000 mm 0 W/m 15,7 C 17,9 C 1,6 km/h (1 Bft) 100 %
03.08.2014 23:00 17,9 C 17,9 C 17,9 C 87 % 1012,5 hPa 0,0 l/m 0,0 km/h (0 Bft) W-SW 247 0 min 0,000 mm 0 W/m 15,7 C 17,9 C 1,6 km/h (1 Bft) 100 %
03.08.2014 23:10 17,8 C 17,8 C 17,9 C 87 % 1012,5 hPa 0,0 l/m 0,0 km/h (0 Bft) N 0 0 min 0,000 mm 0 W/m 15,6 C 17,8 C 0,0 km/h (0 Bft) 99 %
03.08.2014 23:20 17,8 C 17,8 C 17,8 C 87 % 1012,5 hPa 0,0 l/m 0,0 km/h (0 Bft) W-SW 247 0 min 0,000 mm 0 W/m 15,6 C 17,8 C 1,6 km/h (1 Bft) 99 %
03.08.2014 23:30 17,7 C 17,7 C 17,8 C 87 % 1012,4 hPa 0,0 l/m 0,0 km/h (0 Bft) W-SW 247 0 min 0,000 mm 0 W/m 15,5 C 17,7 C 1,6 km/h (1 Bft) 100 %
03.08.2014 23:40 17,7 C 17,7 C 17,7 C 87 % 1012,4 hPa 0,2 l/m 0,0 km/h (0 Bft) SO 135 0 min 0,000 mm 0 W/m 15,5 C 17,7 C 4,8 km/h (1 Bft) 100 %
03.08.2014 23:50 17,6 C 17,6 C 17,7 C 87 % 1012,3 hPa 0,0 l/m 0,0 km/h (0 Bft) SO 135 0 min 0,000 mm 0 W/m 15,4 C 17,6 C 4,8 km/h (1 Bft) 100 %
_ Min-Zeit 06:10 06:10 06:30 17:10 00:40 - 00:00 - - - - - 06:30 06:20 00:10 06:50
Minimum _ 16,3 C 16,3 C 16,3 C 61 % 1007,8 hPa - 0,0 km/h (0 Bft) - - - - - 14,1 C 16,3 C 0,0 km/h (0 Bft) 89 %
_ Max-Zeit 17:10 18:20 17:10 06:20 22:30 02:50 17:00 - - 08:40 15:00 14:50 14:00 17:10 17:00 07:50
Maximum _ 25,1 C 25,1 C 25,1 C 89 % 1012,6 hPa 1,8 l/m 6,2 km/h
W-NW (2 Bft)
- - 10 min 0,381 mm 872 W/m 18,9 C 25,1 C 19,3 km/h
W-SW (3 Bft)
100 %
Durchschnitt _ 19,7 C 19,7 C 19,8 C 81 % 1010,1 hPa #3,8 l/m 1,5 km/h (1 Bft) S-SO - #9:00 h #2,209 mm 245 W/m 16,3 C 19,7 C 6,5 km/h (2 Bft) 98 %
PRIVATE WETTERSTATION BILLIGHEIM-ALLFELD - www.neckar-odenwald-wetter.de - Holger Sonntag